Time;durP1;ratioP1;P1;durP2;ratioP2;P2;SDS_P1;SDS_P2;PMS_P1;PMS_P2;Temp;Humidity;BMP_temperature;BMP_pressure;BME280_temperature;BME280_humidity;BME280_pressure;Samples;Min_cycle;Max_cycle;Signal;HPM_P1;HPM_P2
2021/12/01 00:00:17;;;;;;;3.40;3.10;;;;;;;4.60;42.48;99291.22;5032841;28;20410;-80
2021/12/01 00:02:42;;;;;;;5.20;4.47;;;;;;;4.50;42.66;99277.38;5032811;28;20033;-80
2021/12/01 00:05:09;;;;;;;5.77;4.27;;;;;;;4.38;42.55;99269.69;5033156;28;20112;-79
2021/12/01 00:07:36;;;;;;;6.60;4.90;;;;;;;4.32;42.73;99254.59;5032739;28;20516;-79
2021/12/01 00:10:07;;;;;;;6.77;4.90;;;;;;;4.51;42.55;99285.06;5032666;28;20021;-79
2021/12/01 00:12:32;;;;;;;7.57;4.70;;;;;;;3.91;42.75;99187.97;5032248;28;20049;-80
2021/12/01 00:14:58;;;;;;;7.20;4.83;;;;;;;4.43;42.77;99251.78;5032074;28;20060;-80
2021/12/01 00:17:25;;;;;;;8.20;4.97;;;;;;;4.37;42.61;99234.06;5031984;28;20574;-79
2021/12/01 00:19:51;;;;;;;12.80;7.67;;;;;;;4.71;42.36;99289.22;5032234;28;20426;-79
2021/12/01 00:22:16;;;;;;;11.70;8.50;;;;;;;4.73;42.51;99278.63;5032318;28;20030;-79
2021/12/01 00:24:42;;;;;;;12.33;8.17;;;;;;;4.67;42.37;99271.34;5032358;28;20036;-80
2021/12/01 00:27:07;;;;;;;13.43;8.33;;;;;;;4.36;42.58;99240.28;5030905;28;20021;-79
2021/12/01 00:29:32;;;;;;;15.63;7.43;;;;;;;4.15;42.68;99198.72;5032284;28;20025;-79
2021/12/01 00:31:58;;;;;;;12.90;7.53;;;;;;;4.37;42.26;99234.06;5032078;28;20025;-79
2021/12/01 00:34:23;;;;;;;13.30;7.67;;;;;;;4.87;42.44;99301.66;5031996;28;20021;-80
2021/12/01 00:36:49;;;;;;;13.40;8.00;;;;;;;4.38;42.63;99240.94;5031774;28;20055;-79
2021/12/01 00:39:15;;;;;;;13.53;8.20;;;;;;;4.46;42.54;99240.25;5031078;28;20057;-80
2021/12/01 00:41:40;;;;;;;12.23;7.07;;;;;;;4.70;42.52;99278.91;5031775;28;20032;-80
2021/12/01 00:44:07;;;;;;;10.97;6.43;;;;;;;4.53;42.50;99253.56;5031749;28;20456;-79
2021/12/01 00:46:40;;;;;;;9.63;6.27;;;;;;;4.33;42.48;99227.50;5030800;28;20009;-79
2021/12/01 00:49:06;;;;;;;6.67;5.40;;;;;;;4.68;42.58;99281.66;5030559;28;20029;-80
2021/12/01 00:51:32;;;;;;;8.37;5.53;;;;;;;4.90;42.50;99322.28;5031641;28;20083;-79
2021/12/01 00:53:58;;;;;;;8.90;5.33;;;;;;;4.91;42.49;99318.69;5031836;28;20029;-79
2021/12/01 00:56:23;;;;;;;4.87;3.50;;;;;;;4.60;42.65;99296.44;5031685;28;20025;-80
2021/12/01 00:58:50;;;;;;;4.90;3.20;;;;;;;4.37;42.21;99235.88;5031686;28;20482;-79
2021/12/01 01:01:16;;;;;;;4.63;3.53;;;;;;;4.89;42.03;99336.34;5030533;28;20033;-80
2021/12/01 01:03:41;;;;;;;3.50;3.00;;;;;;;4.52;41.85;99263.19;5031441;28;20410;-80
2021/12/01 01:06:07;;;;;;;5.03;2.60;;;;;;;4.85;41.61;99340.22;5031451;28;20494;-80
2021/12/01 01:08:32;;;;;;;2.80;2.43;;;;;;;4.05;41.77;99199.72;5031461;28;20021;-79
2021/12/01 01:16:24;;;;;;;3.83;3.20;;;;;;;4.26;41.54;99209.94;5031834;28;20183;-80
2021/12/01 01:18:59;;;;;;;4.97;3.77;;;;;;;4.65;41.19;99273.28;5030321;28;20467;-80
2021/12/01 01:21:29;;;;;;;6.57;4.17;;;;;;;4.89;41.41;99318.03;5031323;28;20064;-80
2021/12/01 01:23:55;;;;;;;3.27;2.73;;;;;;;4.57;41.52;99286.28;5031727;28;20405;-80
2021/12/01 01:26:22;;;;;;;3.53;3.23;;;;;;;4.06;41.68;99202.19;5031286;28;20022;-79
2021/12/01 01:28:48;;;;;;;2.97;2.47;;;;;;;4.66;41.49;99315.00;5031377;28;20136;-80
2021/12/01 01:31:15;;;;;;;2.73;2.47;;;;;;;4.61;41.58;99324.25;5030056;28;20078;-80
2021/12/01 01:33:40;;;;;;;4.17;3.13;;;;;;;4.53;41.36;99309.28;5030164;28;20032;-80
2021/12/01 01:36:06;;;;;;;5.13;3.77;;;;;;;4.49;41.62;99302.69;5031041;28;20029;-80
2021/12/01 01:38:32;;;;;;;4.00;2.90;;;;;;;4.29;41.72;99264.53;5031269;28;20478;-80
2021/12/01 01:41:00;;;;;;;3.77;3.33;;;;;;;4.47;41.73;99288.94;5031754;28;20053;-79
2021/12/01 01:43:26;;;;;;;4.27;3.37;;;;;;;4.16;41.91;99254.41;5031620;28;20033;-80
2021/12/01 01:45:53;;;;;;;4.80;3.40;;;;;;;4.32;41.97;99300.81;5031604;28;20518;-80
2021/12/01 01:48:22;;;;;;;5.30;4.20;;;;;;;3.92;42.54;99238.41;5029813;28;20025;-79
2021/12/01 01:50:48;;;;;;;7.87;5.17;;;;;;;3.63;42.57;99184.47;5034126;28;20021;-80
2021/12/01 01:53:23;;;;;;;5.10;4.07;;;;;;;3.29;42.46;99146.81;5035035;28;20036;-80
2021/12/01 01:55:52;;;;;;;5.70;3.73;;;;;;;3.82;43.27;99248.91;5035094;28;20379;-80
2021/12/01 01:58:18;;;;;;;4.73;3.40;;;;;;;3.45;43.15;99202.66;5034844;28;20040;-80
2021/12/01 02:00:51;;;;;;;6.70;3.97;;;;;;;4.06;43.47;99275.34;5034909;28;20104;-80
2021/12/01 02:03:21;;;;;;;4.43;3.90;;;;;;;3.93;43.35;99237.44;5035048;28;20100;-80
2021/12/01 02:05:48;;;;;;;5.00;3.70;;;;;;;3.73;43.51;99185.28;5033626;28;20490;-80
2021/12/01 02:08:28;;;;;;;3.93;3.20;;;;;;;3.69;43.30;99168.25;5034738;28;20029;-80
2021/12/01 02:10:54;;;;;;;4.40;2.60;;;;;;;3.05;43.44;99059.44;5033390;28;20025;-79
2021/12/01 02:13:20;;;;;;;3.50;2.43;;;;;;;3.52;43.19;99150.72;5034872;28;20021;-80
2021/12/01 02:15:48;;;;;;;2.60;2.40;;;;;;;3.12;43.56;99073.53;5034669;28;20033;-79
2021/12/01 02:18:14;;;;;;;3.03;2.80;;;;;;;4.07;43.41;99223.91;5034511;28;20032;-80
2021/12/01 02:20:56;;;;;;;3.20;2.90;;;;;;;3.41;43.43;99103.91;5033273;28;20022;-80
2021/12/01 02:23:23;;;;;;;2.83;2.50;;;;;;;4.07;43.55;99222.13;5034373;28;20112;-79
2021/12/01 02:25:49;;;;;;;4.43;4.03;;;;;;;4.09;43.62;99211.53;5033113;28;20545;-80
2021/12/01 02:28:14;;;;;;;3.27;2.90;;;;;;;3.53;43.45;99120.22;5034046;28;20159;-79
2021/12/01 02:30:40;;;;;;;4.00;3.60;;;;;;;3.10;43.24;99057.22;5034293;28;20025;-80
2021/12/01 02:33:07;;;;;;;3.60;2.87;;;;;;;3.31;43.44;99097.91;5034248;28;20116;-80
2021/12/01 02:35:33;;;;;;;3.57;2.80;;;;;;;3.84;43.59;99231.28;5033880;28;20025;-79
2021/12/01 02:37:58;;;;;;;7.67;4.63;;;;;;;3.58;43.82;99157.97;5033806;28;20534;-79
2021/12/01 02:40:24;;;;;;;8.70;6.57;;;;;;;3.68;44.05;99192.69;5034254;28;20075;-79
2021/12/01 02:42:50;;;;;;;10.07;6.70;;;;;;;3.38;44.20;99119.88;5034063;28;20441;-80
2021/12/01 02:45:16;;;;;;;8.97;6.43;;;;;;;3.90;44.57;99215.06;5034492;28;20030;-79
2021/12/01 02:47:41;;;;;;;6.87;6.00;;;;;;;3.76;44.75;99199.84;5033773;28;20023;-80
2021/12/01 02:50:07;;;;;;;8.13;5.73;;;;;;;3.78;44.76;99208.38;5034044;28;20056;-80
2021/12/01 02:52:34;;;;;;;8.10;6.13;;;;;;;3.77;45.21;99223.22;5034081;28;20017;-79
2021/12/01 02:55:04;;;;;;;8.53;5.77;;;;;;;3.80;45.31;99230.75;5033884;28;20109;-80
2021/12/01 02:57:50;;;;;;;9.03;6.03;;;;;;;3.58;45.31;99206.75;5033814;28;20039;-79
2021/12/01 03:00:19;;;;;;;7.83;5.47;;;;;;;3.78;45.52;99245.75;5033873;28;20457;-79
2021/12/01 03:02:45;;;;;;;6.73;5.50;;;;;;;3.39;45.18;99225.88;5032926;28;20032;-80
2021/12/01 03:05:12;;;;;;;6.87;5.00;;;;;;;3.75;45.66;99248.63;5033751;28;20101;-80
2021/12/01 03:07:38;;;;;;;8.93;6.87;;;;;;;3.23;45.32;99181.28;5033607;28;20409;-80
2021/12/01 03:10:05;;;;;;;7.20;5.73;;;;;;;3.39;45.38;99211.06;5032353;28;20022;-80
2021/12/01 03:12:34;;;;;;;9.73;6.83;;;;;;;3.72;45.49;99261.97;5033596;28;20486;-80
2021/12/01 03:15:00;;;;;;;9.93;7.47;;;;;;;3.72;45.29;99251.53;5033546;28;20033;-79
2021/12/01 03:17:32;;;;;;;6.77;4.63;;;;;;;3.35;45.25;99196.66;5033499;28;20030;-79
2021/12/01 03:19:58;;;;;;;4.13;3.60;;;;;;;3.23;45.45;99199.56;5033535;28;20045;-80
2021/12/01 03:22:24;;;;;;;4.20;3.57;;;;;;;3.55;45.35;99254.03;5031774;28;20070;-79
2021/12/01 03:24:50;;;;;;;4.70;3.30;;;;;;;3.45;45.00;99228.75;5033519;28;20402;-80
2021/12/01 03:27:16;;;;;;;7.57;5.07;;;;;;;3.66;45.43;99265.13;5033168;28;20028;-80
2021/12/01 03:29:42;;;;;;;7.57;5.07;;;;;;;3.59;45.43;99224.88;5032948;28;20017;-80
2021/12/01 03:32:08;;;;;;;5.80;4.57;;;;;;;3.84;45.02;99265.25;5033253;28;20058;-80
2021/12/01 03:34:36;;;;;;;6.43;4.63;;;;;;;3.26;44.79;99178.41;5033175;28;20032;-80
2021/12/01 03:37:02;;;;;;;5.10;4.60;;;;;;;3.33;44.98;99179.47;5031878;28;20132;-79
2021/12/01 03:39:27;;;;;;;4.40;3.80;;;;;;;3.66;44.95;99222.53;5033133;28;20025;-80
2021/12/01 03:41:53;;;;;;;6.43;3.90;;;;;;;3.12;44.73;99127.50;5033139;28;20029;-80
2021/12/01 03:44:19;;;;;;;5.27;4.30;;;;;;;3.30;44.84;99164.94;5033018;28;20025;-80
2021/12/01 03:46:44;;;;;;;5.27;4.17;;;;;;;3.90;44.55;99269.91;5032761;28;20029;-79
2021/12/01 03:49:10;;;;;;;7.37;5.10;;;;;;;3.81;44.38;99252.47;5032917;28;20033;-80
2021/12/01 03:51:36;;;;;;;7.83;5.77;;;;;;;3.70;44.99;99229.94;5033082;28;20021;-79
2021/12/01 03:54:02;;;;;;;8.60;5.67;;;;;;;3.90;44.63;99249.00;5032857;28;20089;-80
2021/12/01 03:56:29;;;;;;;6.13;4.80;;;;;;;3.05;44.98;99121.19;5032864;28;20025;-80
2021/12/01 03:58:56;;;;;;;7.17;4.77;;;;;;;3.72;44.77;99256.75;5032562;28;20099;-79
2021/12/01 04:01:21;;;;;;;4.43;3.53;;;;;;;3.83;44.85;99274.03;5032566;28;21068;-80
2021/12/01 04:03:47;;;;;;;8.47;5.30;;;;;;;3.29;45.06;99184.16;5032614;28;20061;-79
2021/12/01 04:06:12;;;;;;;7.70;5.73;;;;;;;3.21;44.92;99164.97;5032462;28;20175;-79
2021/12/01 04:08:38;;;;;;;7.63;5.90;;;;;;;3.63;45.13;99231.47;5032289;28;20017;-80
2021/12/01 04:11:04;;;;;;;6.40;4.20;;;;;;;2.78;44.90;99095.81;5032280;28;20510;-79
2021/12/01 04:13:30;;;;;;;6.63;4.77;;;;;;;3.55;45.12;99223.53;5032554;28;20392;-79
2021/12/01 04:15:55;;;;;;;6.67;4.97;;;;;;;3.57;45.26;99221.59;5032477;28;20028;-79
2021/12/01 04:18:21;;;;;;;6.00;4.47;;;;;;;2.66;45.20;99081.31;5032316;28;20060;-80
2021/12/01 04:20:46;;;;;;;7.57;6.23;;;;;;;3.88;45.52;99284.88;5032578;28;20462;-79
2021/12/01 04:23:12;;;;;;;10.77;6.83;;;;;;;3.36;44.99;99193.06;5032454;28;20013;-79
2021/12/01 04:25:37;;;;;;;10.13;7.37;;;;;;;3.47;44.80;99213.78;5032342;28;20025;-79
2021/12/01 04:28:03;;;;;;;8.40;6.03;;;;;;;3.89;45.06;99272.66;5032342;28;20075;-80
2021/12/01 04:30:29;;;;;;;11.03;7.23;;;;;;;3.43;44.96;99203.78;5031978;28;20521;-80
2021/12/01 04:32:56;;;;;;;8.97;6.77;;;;;;;3.46;44.54;99191.25;5031922;28;20073;-80
2021/12/01 04:35:24;;;;;;;8.80;6.13;;;;;;;4.08;44.56;99281.25;5031623;28;20036;-80
2021/12/01 04:37:50;;;;;;;8.10;5.63;;;;;;;3.28;44.54;99158.22;5032123;28;20090;-80
2021/12/01 04:40:17;;;;;;;12.20;8.67;;;;;;;4.06;44.51;99266.69;5031950;28;20018;-80
2021/12/01 04:42:43;;;;;;;11.97;7.83;;;;;;;3.60;44.88;99192.59;5032322;28;20061;-79
2021/12/01 04:45:18;;;;;;;9.80;6.73;;;;;;;3.37;44.60;99160.78;5032016;28;20437;-80
2021/12/01 04:47:48;;;;;;;11.23;7.70;;;;;;;4.10;44.85;99284.53;5030449;28;20025;-80
2021/12/01 04:50:15;;;;;;;12.90;9.20;;;;;;;4.09;44.71;99271.63;5031815;28;20025;-80
2021/12/01 04:52:41;;;;;;;12.03;9.83;;;;;;;4.00;45.13;99272.47;5031845;28;20494;-80
2021/12/01 04:55:08;;;;;;;13.27;9.83;;;;;;;3.82;44.99;99256.72;5031682;28;20028;-80
2021/12/01 04:57:34;;;;;;;13.30;9.67;;;;;;;4.03;45.03;99270.41;5030592;28;20021;-80
2021/12/01 04:59:59;;;;;;;11.67;8.83;;;;;;;3.64;45.15;99206.19;5031570;28;20029;-80
2021/12/01 05:02:25;;;;;;;10.53;7.27;;;;;;;3.17;45.13;99123.50;5031594;28;20021;-80
2021/12/01 05:04:50;;;;;;;8.83;7.20;;;;;;;4.05;45.16;99283.31;5031683;28;20113;-79
2021/12/01 05:07:16;;;;;;;12.10;7.20;;;;;;;3.66;45.30;99217.31;5031700;28;20096;-79
2021/12/01 05:09:42;;;;;;;12.60;9.23;;;;;;;2.25;45.01;98992.09;5031160;28;20025;-80
2021/12/01 05:12:08;;;;;;;16.17;11.80;;;;;;;3.16;45.33;99126.25;5031811;28;20025;-80
2021/12/01 05:14:36;;;;;;;17.20;11.97;;;;;;;3.75;45.01;99212.09;5031748;28;20028;-79
2021/12/01 05:17:03;;;;;;;21.37;15.53;;;;;;;2.85;45.22;99076.06;5031618;28;20060;-80
2021/12/01 05:19:29;;;;;;;20.77;14.60;;;;;;;3.64;45.06;99219.25;5031633;28;20014;-79
2021/12/01 05:21:55;;;;;;;16.20;11.10;;;;;;;4.01;45.46;99300.25;5030315;28;20097;-80
2021/12/01 05:24:20;;;;;;;13.53;10.67;;;;;;;3.28;45.13;99166.03;5032658;28;20022;-80
2021/12/01 05:26:46;;;;;;;17.63;13.07;;;;;;;3.71;45.00;99236.81;5035694;28;20470;-80
2021/12/01 05:29:12;;;;;;;19.73;13.90;;;;;;;3.39;45.12;99163.25;5035466;28;20036;-80
2021/12/01 05:31:38;;;;;;;23.60;15.40;;;;;;;4.07;45.28;99271.75;5035560;28;20049;-80
2021/12/01 05:34:04;;;;;;;22.07;14.53;;;;;;;4.09;45.17;99288.13;5035382;28;20052;-80
2021/12/01 05:36:29;;;;;;;16.70;13.40;;;;;;;3.92;45.44;99231.41;5035320;28;20026;-80
2021/12/01 05:38:55;;;;;;;22.87;13.57;;;;;;;3.55;45.33;99194.81;5034127;28;20024;-79
2021/12/01 05:41:21;;;;;;;18.60;13.30;;;;;;;3.22;45.50;99149.16;5035215;28;20060;-80
2021/12/01 05:43:47;;;;;;;19.90;13.57;;;;;;;3.54;45.53;99216.66;5035324;28;20044;-79
2021/12/01 05:46:12;;;;;;;19.13;13.10;;;;;;;3.74;45.42;99220.88;5034041;28;20410;-80
2021/12/01 05:48:38;;;;;;;19.60;13.50;;;;;;;3.73;45.53;99227.06;5033777;28;20030;-80
2021/12/01 05:51:04;;;;;;;22.60;15.20;;;;;;;3.95;45.21;99252.00;5035324;28;20376;-80
2021/12/01 05:53:29;;;;;;;24.13;15.80;;;;;;;3.64;45.27;99190.53;5035306;28;20136;-80
2021/12/01 05:55:55;;;;;;;22.30;16.70;;;;;;;3.49;45.24;99149.22;5035186;28;20025;-79
2021/12/01 05:58:21;;;;;;;21.90;15.33;;;;;;;4.31;45.01;99300.00;5034088;28;20045;-80
2021/12/01 06:00:48;;;;;;;29.97;19.90;;;;;;;4.10;44.74;99236.69;5034999;28;20419;-80
2021/12/01 06:03:13;;;;;;;49.07;31.20;;;;;;;4.08;44.95;99226.38;5034887;28;20621;-79
2021/12/01 06:05:39;;;;;;;43.80;27.93;;;;;;;4.49;44.75;99276.56;5034670;28;20025;-79
2021/12/01 06:08:05;;;;;;;41.03;28.50;;;;;;;3.80;44.63;99144.59;5040317;28;20032;-79
2021/12/01 06:10:30;;;;;;;30.97;22.80;;;;;;;4.54;44.73;99260.44;5035086;28;20093;-79
2021/12/01 06:12:56;;;;;;;31.33;23.43;;;;;;;4.38;44.65;99225.25;5045588;28;20121;-79
2021/12/01 06:15:22;;;;;;;28.80;21.83;;;;;;;4.02;44.16;99166.06;5053293;28;20029;-80
2021/12/01 06:17:47;;;;;;;33.50;23.43;;;;;;;4.81;44.38;99291.78;5054716;28;20070;-79
2021/12/01 06:20:14;;;;;;;27.43;20.47;;;;;;;4.86;44.41;99286.09;5053201;28;20565;-79
2021/12/01 06:22:42;;;;;;;29.93;22.23;;;;;;;4.69;44.16;99245.88;5054654;28;20517;-79
2021/12/01 06:25:08;;;;;;;37.17;22.90;;;;;;;4.78;44.05;99279.81;5054775;28;20029;-79
2021/12/01 06:27:34;;;;;;;44.93;30.53;;;;;;;4.60;44.17;99233.69;5052932;28;20021;-79
2021/12/01 06:29:59;;;;;;;45.07;26.90;;;;;;;4.76;44.00;99245.16;5054546;28;20043;-79
2021/12/01 06:32:25;;;;;;;46.50;27.87;;;;;;;4.78;44.01;99245.00;5055069;28;20075;-79
2021/12/01 06:34:50;;;;;;;41.37;26.57;;;;;;;3.94;44.29;99150.28;5051393;28;20394;-79
2021/12/01 06:37:17;;;;;;;44.87;25.93;;;;;;;4.40;44.05;99210.25;5032737;28;20056;-79
2021/12/01 06:39:44;;;;;;;44.10;25.13;;;;;;;4.12;44.09;99148.53;5048778;28;20025;-77
2021/12/01 06:42:09;;;;;;;38.50;27.50;;;;;;;4.99;44.09;99291.78;5053776;28;20520;-78
2021/12/01 06:44:35;;;;;;;41.07;29.27;;;;;;;4.84;44.21;99275.78;5051750;28;20097;-79
2021/12/01 06:47:02;;;;;;;41.57;29.53;;;;;;;4.39;44.53;99220.84;5034066;28;20040;-79
2021/12/01 06:49:28;;;;;;;46.63;29.87;;;;;;;5.02;44.20;99315.03;5033748;28;20057;-79
2021/12/01 06:51:55;;;;;;;40.67;30.43;;;;;;;5.07;44.36;99295.31;5033475;28;20029;-80
2021/12/01 06:54:21;;;;;;;41.13;29.07;;;;;;;4.76;44.22;99260.00;5040159;28;20082;-79
2021/12/01 06:56:46;;;;;;;43.60;29.23;;;;;;;4.78;44.34;99248.44;5031926;28;20033;-79
2021/12/01 06:59:12;;;;;;;46.90;29.93;;;;;;;5.22;44.27;99292.19;5033271;28;20017;-78
2021/12/01 07:01:38;;;;;;;50.37;31.83;;;;;;;5.29;43.99;99303.72;5051380;28;20104;-79
2021/12/01 07:04:04;;;;;;;48.60;31.13;;;;;;;5.35;44.10;99300.50;5040411;28;20025;-79
2021/12/01 07:06:29;;;;;;;56.20;35.47;;;;;;;5.27;44.08;99289.97;5053538;28;20063;-79
2021/12/01 07:08:59;;;;;;;50.83;32.03;;;;;;;5.28;43.83;99281.13;5052146;28;20032;-79
2021/12/01 07:11:24;;;;;;;42.50;27.20;;;;;;;5.54;43.97;99323.91;5053309;28;20074;-79
2021/12/01 07:13:50;;;;;;;38.60;25.57;;;;;;;5.06;44.03;99238.72;5035111;28;20511;-79
2021/12/01 07:16:16;;;;;;;26.57;16.33;;;;;;;5.25;43.53;99239.56;5039249;28;20037;-79
2021/12/01 07:18:41;;;;;;;25.77;16.60;;;;;;;5.27;43.58;99245.47;5053140;28;20024;-79
2021/12/01 07:21:07;;;;;;;24.17;16.00;;;;;;;5.69;43.71;99290.13;5057622;28;20469;-79
2021/12/01 07:23:32;;;;;;;21.53;13.60;;;;;;;5.57;43.55;99270.41;5050594;28;20100;-84
2021/12/01 07:25:58;;;;;;;23.37;15.67;;;;;;;5.41;43.43;99234.44;5045759;28;20411;-84
2021/12/01 07:28:23;;;;;;;23.77;14.93;;;;;;;5.54;42.82;99232.25;5040050;28;20024;-83
2021/12/01 07:30:49;;;;;;;23.23;17.20;;;;;;;5.56;43.27;99238.16;5044516;28;20095;-83
2021/12/01 07:33:14;;;;;;;24.30;16.80;;;;;;;5.60;42.77;99257.00;5031636;28;20092;-83
2021/12/01 07:35:40;;;;;;;24.00;16.30;;;;;;;5.38;42.53;99213.81;5030926;28;20064;-84
2021/12/01 07:38:05;;;;;;;23.87;15.07;;;;;;;5.87;42.22;99283.03;5044692;28;20031;-82
2021/12/01 07:40:31;;;;;;;15.93;10.60;;;;;;;5.73;42.38;99255.63;5040863;28;20025;-82
2021/12/01 07:42:56;;;;;;;16.07;11.57;;;;;;;6.33;42.56;99302.03;5050714;28;20017;-82
2021/12/01 07:45:22;;;;;;;19.20;12.60;;;;;;;4.57;41.45;99022.22;5052303;28;20056;-82
2021/12/01 07:47:47;;;;;;;15.70;11.10;;;;;;;6.21;41.88;99288.38;5049056;28;20028;-82
2021/12/01 07:50:13;;;;;;;15.63;10.23;;;;;;;5.52;41.83;99158.25;5031783;28;20422;-83
2021/12/01 07:52:39;;;;;;;21.53;14.07;;;;;;;5.86;41.70;99221.13;5034266;28;20033;-83
2021/12/01 07:55:07;;;;;;;20.67;14.27;;;;;;;5.97;41.31;99226.16;5037303;28;20116;-86
2021/12/01 07:57:33;;;;;;;21.90;14.80;;;;;;;6.40;41.17;99258.47;5039681;28;20406;-84
2021/12/01 07:59:59;;;;;;;20.83;14.57;;;;;;;6.62;41.11;99289.34;5045340;28;20021;-83
2021/12/01 08:02:24;;;;;;;21.57;14.43;;;;;;;6.11;41.14;99224.75;5047250;28;20491;-84
2021/12/01 08:04:50;;;;;;;19.53;14.20;;;;;;;5.95;41.14;99167.84;5035895;28;20021;-83
2021/12/01 08:07:15;;;;;;;16.73;11.83;;;;;;;5.94;40.77;99176.66;5044219;28;20533;-85
2021/12/01 08:09:41;;;;;;;12.27;8.33;;;;;;;5.97;39.86;99160.66;5038435;28;20061;-84
2021/12/01 08:12:10;;;;;;;10.77;7.70;;;;;;;6.95;39.63;99303.41;5033247;28;20035;-84
2021/12/01 08:14:36;;;;;;;13.67;9.60;;;;;;;6.54;39.77;99215.06;5034101;28;20044;-84
2021/12/01 08:17:02;;;;;;;11.97;8.50;;;;;;;6.79;39.31;99279.75;5032945;28;20033;-86
2021/12/01 08:19:27;;;;;;;10.70;8.13;;;;;;;7.24;39.19;99308.22;5033629;28;20021;-84
2021/12/01 08:21:53;;;;;;;9.53;5.37;;;;;;;6.93;38.81;99255.50;5042454;28;20532;-86
2021/12/01 08:24:19;;;;;;;8.53;6.83;;;;;;;7.38;39.02;99304.13;5053924;28;20171;-84
2021/12/01 08:26:45;;;;;;;5.85;4.68;;;;;;;7.49;38.72;99318.78;5052397;28;20030;-85
2021/12/01 08:29:11;;;;;;;10.27;7.50;;;;;;;7.57;39.09;99298.56;5063991;28;20107;-85
2021/12/01 08:31:37;;;;;;;5.93;4.28;;;;;;;7.65;38.30;99305.63;5050695;28;20498;-85
2021/12/01 08:34:03;;;;;;;11.83;5.73;;;;;;;7.28;38.32;99224.69;5032249;28;20029;-85
2021/12/01 08:36:29;;;;;;;9.27;6.50;;;;;;;7.76;38.80;99288.72;5030928;28;20498;-85
2021/12/01 08:38:54;;;;;;;6.95;5.22;;;;;;;7.72;38.30;99266.38;5030311;28;20092;-85
2021/12/01 08:41:20;;;;;;;6.53;4.80;;;;;;;7.65;37.96;99253.91;5037691;28;20052;-85
2021/12/01 08:43:46;;;;;;;6.50;4.97;;;;;;;7.50;38.26;99226.66;5031123;28;20079;-84
2021/12/01 08:46:13;;;;;;;9.23;6.38;;;;;;;7.92;37.93;99276.38;5059056;28;20029;-84
2021/12/01 08:48:39;;;;;;;8.25;6.05;;;;;;;8.08;38.11;99293.09;5043502;28;20079;-85
2021/12/01 08:51:06;;;;;;;7.65;4.53;;;;;;;8.14;38.64;99290.59;5035837;28;20030;-82
2021/12/01 08:53:34;;;;;;;7.68;5.53;;;;;;;8.22;38.10;99281.91;5035196;28;20124;-83
2021/12/01 08:56:00;;;;;;;6.38;4.90;;;;;;;7.93;38.31;99233.31;5035911;28;20581;-85
2021/12/01 08:58:26;;;;;;;9.02;4.45;;;;;;;7.87;38.23;99204.25;5045625;28;20047;-84
2021/12/01 09:00:54;;;;;;;5.72;2.90;;;;;;;8.37;39.10;99274.97;5077317;28;20378;-85
2021/12/01 09:03:21;;;;;;;4.90;3.30;;;;;;;7.92;38.49;99194.06;5042767;28;20025;-85
2021/12/01 09:05:47;;;;;;;5.85;3.80;;;;;;;8.52;38.68;99283.78;5038630;28;20446;-86
2021/12/01 09:08:15;;;;;;;6.38;3.17;;;;;;;8.24;38.90;99253.63;5052593;28;20020;-85
2021/12/01 09:10:41;;;;;;;4.70;2.72;;;;;;;8.60;38.78;99261.88;5078450;28;20033;-84
2021/12/01 09:13:07;;;;;;;5.40;3.10;;;;;;;8.25;38.85;99192.13;5044724;28;20026;-84
2021/12/01 09:15:33;;;;;;;7.47;3.13;;;;;;;8.19;38.74;99183.13;5044988;28;20029;-83
2021/12/01 09:17:59;;;;;;;6.43;3.70;;;;;;;8.91;38.80;99273.22;5054414;28;20021;-83
2021/12/01 09:20:25;;;;;;;6.55;3.22;;;;;;;8.75;38.58;99254.88;5040539;28;20463;-83
2021/12/01 09:22:51;;;;;;;8.57;3.75;;;;;;;8.29;38.83;99161.88;5040653;28;20021;-84
2021/12/01 09:25:17;;;;;;;6.15;4.32;;;;;;;8.09;38.82;99115.94;5033688;28;20017;-84
2021/12/01 09:27:44;;;;;;;6.38;3.55;;;;;;;9.18;38.84;99286.91;5032882;28;20112;-83
2021/12/01 09:30:11;;;;;;;5.55;2.72;;;;;;;8.88;38.42;99247.25;5040411;28;20024;-83
2021/12/01 09:32:38;;;;;;;4.72;3.03;;;;;;;8.71;38.64;99173.81;5034035;28;20108;-83
2021/12/01 09:35:05;;;;;;;5.40;3.97;;;;;;;9.39;38.76;99279.16;5053461;28;20099;-82
2021/12/01 09:37:31;;;;;;;5.88;2.85;;;;;;;8.79;38.85;99205.34;5048736;28;20021;-83
2021/12/01 09:39:57;;;;;;;6.22;2.72;;;;;;;9.29;38.68;99241.72;5040757;28;20028;-83
2021/12/01 09:42:22;;;;;;;5.20;2.67;;;;;;;9.55;38.83;99307.19;5030553;28;20109;-84
2021/12/01 09:44:50;;;;;;;4.45;2.95;;;;;;;9.03;38.69;99167.50;5037986;28;20448;-82
2021/12/01 09:47:19;;;;;;;4.55;2.50;;;;;;;9.35;38.28;99219.91;5031329;28;20021;-83
2021/12/01 09:49:46;;;;;;;4.40;3.17;;;;;;;9.22;38.43;99182.81;5038608;28;20074;-82
2021/12/01 09:52:12;;;;;;;3.22;2.10;;;;;;;9.78;38.31;99250.03;5043250;28;20052;-83
2021/12/01 09:54:39;;;;;;;2.80;1.90;;;;;;;9.29;38.67;99161.84;5050417;28;20073;-83
2021/12/01 09:57:06;;;;;;;3.85;2.83;;;;;;;9.23;38.64;99129.97;5030158;28;20025;-82
2021/12/01 09:59:32;;;;;;;4.18;3.20;;;;;;;9.61;38.60;99187.88;5030185;28;20097;-82
2021/12/01 10:01:58;;;;;;;4.80;2.85;;;;;;;10.05;38.36;99232.75;5041998;28;20075;-82
2021/12/01 10:04:24;;;;;;;3.95;2.55;;;;;;;9.75;38.92;99152.00;5036198;28;20068;-83
2021/12/01 10:06:50;;;;;;;4.63;3.08;;;;;;;10.07;38.58;99216.75;5041092;28;20029;-82
2021/12/01 10:09:18;;;;;;;2.67;1.80;;;;;;;10.31;38.50;99234.13;5043632;28;20039;-83
2021/12/01 10:11:44;;;;;;;3.75;2.53;;;;;;;9.68;38.64;99111.56;5043697;28;20032;-82
2021/12/01 10:14:18;;;;;;;3.67;1.90;;;;;;;10.49;38.98;99213.47;5040002;28;20124;-82
2021/12/01 10:16:45;;;;;;;5.00;2.42;;;;;;;10.57;38.84;99216.00;5033806;28;20588;-82
2021/12/01 10:19:13;;;;;;;6.57;3.33;;;;;;;10.61;38.74;99211.16;5037911;28;20022;-82
2021/12/01 10:21:46;;;;;;;5.18;2.35;;;;;;;10.37;38.81;99156.88;5052331;28;20051;-81
2021/12/01 10:24:19;;;;;;;4.10;2.97;;;;;;;10.69;38.11;99190.75;5064305;28;20032;-82
2021/12/01 10:26:50;;;;;;;3.53;1.85;;;;;;;10.63;38.75;99180.13;5043863;28;20020;-81
2021/12/01 10:29:19;;;;;;;4.10;2.27;;;;;;;10.32;38.39;99130.22;5033820;28;20474;-82
2021/12/01 10:31:47;;;;;;;3.65;1.63;;;;;;;10.71;38.46;99175.53;5033697;28;20284;-83
2021/12/01 10:34:31;;;;;;;3.10;1.90;;;;;;;10.81;37.15;99197.16;5033863;28;20560;-82
2021/12/01 10:37:08;;;;;;;3.60;2.40;;;;;;;10.92;38.24;99201.13;5033541;28;20120;-81
2021/12/01 10:39:35;;;;;;;2.15;1.77;;;;;;;10.57;38.52;99155.28;5041952;28;20092;-83
2021/12/01 10:42:06;;;;;;;2.45;1.83;;;;;;;10.82;37.97;99188.25;5045994;28;20021;-83
2021/12/01 10:44:33;;;;;;;2.58;2.33;;;;;;;10.76;38.53;99170.50;5033712;28;20026;-82
2021/12/01 10:47:08;;;;;;;4.45;2.78;;;;;;;10.73;37.96;99155.03;5044039;28;20417;-81
2021/12/01 10:49:44;;;;;;;3.05;2.30;;;;;;;10.43;38.17;99112.09;5049900;28;20017;-82
2021/12/01 10:52:34;;;;;;;4.57;2.58;;;;;;;10.90;37.65;99182.03;5044251;28;20036;-82
2021/12/01 10:55:11;;;;;;;10.68;6.25;;;;;;;10.77;38.23;99166.88;5043027;28;20094;-82
2021/12/01 10:58:03;;;;;;;6.65;4.05;;;;;;;10.68;38.17;99127.56;5047009;28;20025;-82
2021/12/01 11:00:49;;;;;;;4.88;2.67;;;;;;;10.71;37.39;99135.13;5049852;28;20029;-82
2021/12/01 11:03:24;;;;;;;4.25;3.10;;;;;;;11.32;37.36;99225.31;5046225;28;20025;-82
2021/12/01 11:05:52;;;;;;;4.70;2.80;;;;;;;10.92;37.67;99129.00;5045157;28;20029;-83
2021/12/01 11:08:18;;;;;;;1.70;1.52;;;;;;;11.54;37.44;99218.16;5050989;28;20029;-83
2021/12/01 11:11:13;;;;;;;4.53;1.98;;;;;;;11.62;37.33;99218.00;5038540;28;20426;-82
2021/12/01 11:13:43;;;;;;;3.63;2.70;;;;;;;11.63;37.17;99227.56;5037938;28;20030;-82
2021/12/01 11:16:13;;;;;;;3.47;2.05;;;;;;;11.17;37.29;99140.81;5034924;28;20655;-83
2021/12/01 11:18:43;;;;;;;2.40;1.60;;;;;;;11.51;36.89;99173.59;5034110;28;20487;-83
2021/12/01 11:21:23;;;;;;;2.33;1.92;;;;;;;11.45;36.18;99146.09;5038119;28;20090;-82
2021/12/01 11:23:54;;;;;;;2.25;1.65;;;;;;;11.82;37.07;99207.59;5031265;28;20074;-78
2021/12/01 11:26:22;;;;;;;1.60;1.50;;;;;;;11.78;36.91;99196.59;5031956;28;20025;-79
2021/12/01 11:28:55;;;;;;;4.20;1.95;;;;;;;11.42;37.37;99120.06;5039804;28;20041;-78
2021/12/01 11:31:24;;;;;;;4.50;2.80;;;;;;;11.79;37.15;99185.00;5051938;28;20075;-79
2021/12/01 11:33:55;;;;;;;5.80;3.97;;;;;;;11.16;37.35;99094.28;5047285;28;20497;-79
2021/12/01 11:36:25;;;;;;;6.80;4.38;;;;;;;11.73;37.03;99189.19;5043087;28;20410;-79
2021/12/01 11:38:53;;;;;;;7.50;4.32;;;;;;;11.69;37.43;99181.84;5047578;28;20033;-79
2021/12/01 11:41:20;;;;;;;3.75;2.65;;;;;;;11.67;37.48;99184.69;5049016;28;20025;-79